<?xml version="1.0" encoding="UTF-8" standalone="no" ?>
<gpx xmlns="http://www.topografix.com/GPX/1/1" xmlns:xsi="http://www.w3.org/2001/XMLSchema-instance" xsi:schemaLocation="http://www.topografix.com/GPX/1/1 http://www.topografix.com/GPX/1/1/gpx.xsd" version="1.1" creator="VisuGPX - https://www.visugpx.com">
  <metadata>
    <name>Traversée des Pyrénées 1/8</name>
    <desc><![CDATA[Partie 1/8 de la traversée des Pyrénées à ski.]]></desc>
  </metadata>
  <trk>
    <name><![CDATA[TPS1 07 FEB 2016]]></name>
    <trkseg>
      <trkpt lat="42.41953" lon="2.25748">
        <ele>2236.64</ele>
        <time>2017-02-07T08:25:49Z</time>
      </trkpt>
      <trkpt lat="42.41965" lon="2.2573">
        <ele>2241.45</ele>
        <time>2017-02-07T08:28:47Z</time>
      </trkpt>
      <trkpt lat="42.4197" lon="2.2568">
        <ele>2244.82</ele>
        <time>2017-02-07T08:30:23Z</time>
      </trkpt>
      <trkpt lat="42.41971" lon="2.25655">
        <ele>2248.66</ele>
        <time>2017-02-07T08:30:51Z</time>
      </trkpt>
      <trkpt lat="42.41974" lon="2.2564">
        <ele>2252.03</ele>
        <time>2017-02-07T08:31:13Z</time>
      </trkpt>
      <trkpt lat="42.41975" lon="2.25617">
        <ele>2256.35</ele>
        <time>2017-02-07T08:31:47Z</time>
      </trkpt>
      <trkpt lat="42.41977" lon="2.25585">
        <ele>2261.16</ele>
        <time>2017-02-07T08:32:35Z</time>
      </trkpt>
      <trkpt lat="42.4198" lon="2.25552">
        <ele>2263.56</ele>
        <time>2017-02-07T08:33:24Z</time>
      </trkpt>
      <trkpt lat="42.41985" lon="2.25528">
        <ele>2268.37</ele>
        <time>2017-02-07T08:33:58Z</time>
      </trkpt>
      <trkpt lat="42.41993" lon="2.25497">
        <ele>2271.73</ele>
        <time>2017-02-07T08:34:49Z</time>
      </trkpt>
      <trkpt lat="42.42" lon="2.25476">
        <ele>2274.62</ele>
        <time>2017-02-07T08:35:15Z</time>
      </trkpt>
      <trkpt lat="42.42015" lon="2.25441">
        <ele>2278.94</ele>
        <time>2017-02-07T08:36:11Z</time>
      </trkpt>
      <trkpt lat="42.42024" lon="2.25405">
        <ele>2283.75</ele>
        <time>2017-02-07T08:37:02Z</time>
      </trkpt>
      <trkpt lat="42.42025" lon="2.25393">
        <ele>2287.11</ele>
        <time>2017-02-07T08:37:19Z</time>
      </trkpt>
      <trkpt lat="42.42031" lon="2.2537">
        <ele>2291.44</ele>
        <time>2017-02-07T08:37:57Z</time>
      </trkpt>
      <trkpt lat="42.42031" lon="2.25364">
        <ele>2290.48</ele>
        <time>2017-02-07T08:38:07Z</time>
      </trkpt>
      <trkpt lat="42.4203" lon="2.25346">
        <ele>2296.25</ele>
        <time>2017-02-07T08:38:31Z</time>
      </trkpt>
      <trkpt lat="42.42034" lon="2.25323">
        <ele>2302.49</ele>
        <time>2017-02-07T08:39:15Z</time>
      </trkpt>
      <trkpt lat="42.42034" lon="2.25323">
        <ele>2302.49</ele>
        <time>2017-02-07T08:39:16Z</time>
      </trkpt>
      <trkpt lat="42.4204" lon="2.25299">
        <ele>2307.78</ele>
        <time>2017-02-07T08:40:13Z</time>
      </trkpt>
      <trkpt lat="42.42041" lon="2.25296">
        <ele>2306.82</ele>
        <time>2017-02-07T08:40:18Z</time>
      </trkpt>
      <trkpt lat="42.42042" lon="2.25287">
        <ele>2312.11</ele>
        <time>2017-02-07T08:40:44Z</time>
      </trkpt>
      <trkpt lat="42.42042" lon="2.25288">
        <ele>2312.11</ele>
        <time>2017-02-07T08:40:45Z</time>
      </trkpt>
      <trkpt lat="42.42045" lon="2.25269">
        <ele>2316.91</ele>
        <time>2017-02-07T08:41:36Z</time>
      </trkpt>
      <trkpt lat="42.42047" lon="2.25256">
        <ele>2320.28</ele>
        <time>2017-02-07T08:42:02Z</time>
      </trkpt>
      <trkpt lat="42.42048" lon="2.25242">
        <ele>2322.68</ele>
        <time>2017-02-07T08:42:27Z</time>
      </trkpt>
      <trkpt lat="42.42046" lon="2.2521">
        <ele>2330.37</ele>
        <time>2017-02-07T08:43:21Z</time>
      </trkpt>
      <trkpt lat="42.42044" lon="2.25191">
        <ele>2332.78</ele>
        <time>2017-02-07T08:43:47Z</time>
      </trkpt>
      <trkpt lat="42.42042" lon="2.25181">
        <ele>2337.58</ele>
        <time>2017-02-07T08:44:31Z</time>
      </trkpt>
      <trkpt lat="42.42024" lon="2.25085">
        <ele>2341.43</ele>
        <time>2017-02-07T08:46:43Z</time>
      </trkpt>
      <trkpt lat="42.42014" lon="2.25061">
        <ele>2345.75</ele>
        <time>2017-02-07T08:47:23Z</time>
      </trkpt>
      <trkpt lat="42.42016" lon="2.25036">
        <ele>2349.12</ele>
        <time>2017-02-07T08:48:02Z</time>
      </trkpt>
      <trkpt lat="42.42029" lon="2.25022">
        <ele>2354.89</ele>
        <time>2017-02-07T08:48:36Z</time>
      </trkpt>
      <trkpt lat="42.42024" lon="2.25009">
        <ele>2358.25</ele>
        <time>2017-02-07T08:48:55Z</time>
      </trkpt>
      <trkpt lat="42.42018" lon="2.24986">
        <ele>2363.06</ele>
        <time>2017-02-07T08:49:33Z</time>
      </trkpt>
      <trkpt lat="42.42011" lon="2.2496">
        <ele>2368.35</ele>
        <time>2017-02-07T08:50:16Z</time>
      </trkpt>
      <trkpt lat="42.4201" lon="2.24945">
        <ele>2371.71</ele>
        <time>2017-02-07T08:50:36Z</time>
      </trkpt>
      <trkpt lat="42.42004" lon="2.24924">
        <ele>2376.52</ele>
        <time>2017-02-07T08:51:07Z</time>
      </trkpt>
      <trkpt lat="42.41999" lon="2.24915">
        <ele>2375.55</ele>
        <time>2017-02-07T08:51:25Z</time>
      </trkpt>
      <trkpt lat="42.41999" lon="2.249">
        <ele>2378.92</ele>
        <time>2017-02-07T08:51:49Z</time>
      </trkpt>
      <trkpt lat="42.42" lon="2.24891">
        <ele>2382.28</ele>
        <time>2017-02-07T08:52:02Z</time>
      </trkpt>
      <trkpt lat="42.42" lon="2.24888">
        <ele>2380.84</ele>
        <time>2017-02-07T08:52:05Z</time>
      </trkpt>
      <trkpt lat="42.42" lon="2.24879">
        <ele>2384.21</ele>
        <time>2017-02-07T08:52:17Z</time>
      </trkpt>
      <trkpt lat="42.41997" lon="2.24873">
        <ele>2384.21</ele>
        <time>2017-02-07T08:52:26Z</time>
      </trkpt>
      <trkpt lat="42.41992" lon="2.24839">
        <ele>2388.53</ele>
        <time>2017-02-07T08:53:16Z</time>
      </trkpt>
      <trkpt lat="42.41977" lon="2.24766">
        <ele>2393.82</ele>
        <time>2017-02-07T08:54:45Z</time>
      </trkpt>
      <trkpt lat="42.41978" lon="2.24746">
        <ele>2397.67</ele>
        <time>2017-02-07T08:55:11Z</time>
      </trkpt>
      <trkpt lat="42.41974" lon="2.24719">
        <ele>2401.03</ele>
        <time>2017-02-07T08:55:49Z</time>
      </trkpt>
      <trkpt lat="42.41972" lon="2.24692">
        <ele>2405.84</ele>
        <time>2017-02-07T08:56:25Z</time>
      </trkpt>
      <trkpt lat="42.41963" lon="2.24662">
        <ele>2409.68</ele>
        <time>2017-02-07T08:57:04Z</time>
      </trkpt>
      <trkpt lat="42.41946" lon="2.24637">
        <ele>2411.12</ele>
        <time>2017-02-07T08:57:43Z</time>
      </trkpt>
      <trkpt lat="42.41929" lon="2.24613">
        <ele>2415.93</ele>
        <time>2017-02-07T08:58:22Z</time>
      </trkpt>
      <trkpt lat="42.41905" lon="2.24583">
        <ele>2420.26</ele>
        <time>2017-02-07T08:59:14Z</time>
      </trkpt>
      <trkpt lat="42.41893" lon="2.24569">
        <ele>2424.58</ele>
        <time>2017-02-07T08:59:51Z</time>
      </trkpt>
      <trkpt lat="42.41876" lon="2.2453">
        <ele>2427.95</ele>
        <time>2017-02-07T09:00:54Z</time>
      </trkpt>
      <trkpt lat="42.4187" lon="2.24517">
        <ele>2431.31</ele>
        <time>2017-02-07T09:01:18Z</time>
      </trkpt>
      <trkpt lat="42.41859" lon="2.24499">
        <ele>2435.64</ele>
        <time>2017-02-07T09:01:54Z</time>
      </trkpt>
      <trkpt lat="42.41843" lon="2.24479">
        <ele>2441.89</ele>
        <time>2017-02-07T09:02:48Z</time>
      </trkpt>
      <trkpt lat="42.41841" lon="2.24476">
        <ele>2440.44</ele>
        <time>2017-02-07T09:02:53Z</time>
      </trkpt>
      <trkpt lat="42.41832" lon="2.24466">
        <ele>2445.25</ele>
        <time>2017-02-07T09:03:19Z</time>
      </trkpt>
      <trkpt lat="42.41788" lon="2.24428">
        <ele>2459.19</ele>
        <time>2017-02-07T09:07:00Z</time>
      </trkpt>
      <trkpt lat="42.41774" lon="2.2443">
        <ele>2465.44</ele>
        <time>2017-02-07T09:07:55Z</time>
      </trkpt>
      <trkpt lat="42.41758" lon="2.24451">
        <ele>2469.76</ele>
        <time>2017-02-07T09:08:40Z</time>
      </trkpt>
      <trkpt lat="42.41743" lon="2.24444">
        <ele>2475.05</ele>
        <time>2017-02-07T09:10:30Z</time>
      </trkpt>
      <trkpt lat="42.41737" lon="2.24427">
        <ele>2480.34</ele>
        <time>2017-02-07T09:10:56Z</time>
      </trkpt>
      <trkpt lat="42.41737" lon="2.24426">
        <ele>2480.34</ele>
        <time>2017-02-07T09:10:57Z</time>
      </trkpt>
      <trkpt lat="42.41727" lon="2.24421">
        <ele>2485.15</ele>
        <time>2017-02-07T09:11:40Z</time>
      </trkpt>
      <trkpt lat="42.41718" lon="2.24422">
        <ele>2488.99</ele>
        <time>2017-02-07T09:12:18Z</time>
      </trkpt>
      <trkpt lat="42.41717" lon="2.24417">
        <ele>2490.43</ele>
        <time>2017-02-07T09:12:25Z</time>
      </trkpt>
      <trkpt lat="42.41702" lon="2.24413">
        <ele>2494.76</ele>
        <time>2017-02-07T09:13:29Z</time>
      </trkpt>
      <trkpt lat="42.417" lon="2.24403">
        <ele>2497.64</ele>
        <time>2017-02-07T09:13:47Z</time>
      </trkpt>
      <trkpt lat="42.41692" lon="2.24397">
        <ele>2502.45</ele>
        <time>2017-02-07T09:14:21Z</time>
      </trkpt>
      <trkpt lat="42.41684" lon="2.24404">
        <ele>2506.29</ele>
        <time>2017-02-07T09:14:46Z</time>
      </trkpt>
      <trkpt lat="42.41678" lon="2.24382">
        <ele>2512.06</ele>
        <time>2017-02-07T09:15:47Z</time>
      </trkpt>
      <trkpt lat="42.4168" lon="2.24377">
        <ele>2515.43</ele>
        <time>2017-02-07T09:15:59Z</time>
      </trkpt>
      <trkpt lat="42.41697" lon="2.24328">
        <ele>2519.75</ele>
        <time>2017-02-07T09:17:30Z</time>
      </trkpt>
      <trkpt lat="42.41701" lon="2.24321">
        <ele>2523.12</ele>
        <time>2017-02-07T09:17:46Z</time>
      </trkpt>
      <trkpt lat="42.41707" lon="2.24296">
        <ele>2526.48</ele>
        <time>2017-02-07T09:18:28Z</time>
      </trkpt>
      <trkpt lat="42.41712" lon="2.24275">
        <ele>2526.48</ele>
        <time>2017-02-07T09:18:55Z</time>
      </trkpt>
      <trkpt lat="42.41721" lon="2.24252">
        <ele>2526.48</ele>
        <time>2017-02-07T09:20:43Z</time>
      </trkpt>
      <trkpt lat="42.41729" lon="2.2414">
        <ele>2522.16</ele>
        <time>2017-02-07T09:32:19Z</time>
      </trkpt>
      <trkpt lat="42.41721" lon="2.2405">
        <ele>2515.43</ele>
        <time>2017-02-07T09:32:41Z</time>
      </trkpt>
      <trkpt lat="42.4168" lon="2.2397">
        <ele>2511.58</ele>
        <time>2017-02-07T09:33:02Z</time>
      </trkpt>
      <trkpt lat="42.41662" lon="2.23895">
        <ele>2506.29</ele>
        <time>2017-02-07T09:33:28Z</time>
      </trkpt>
      <trkpt lat="42.41673" lon="2.23826">
        <ele>2505.33</ele>
        <time>2017-02-07T09:34:02Z</time>
      </trkpt>
      <trkpt lat="42.41688" lon="2.23795">
        <ele>2501.49</ele>
        <time>2017-02-07T09:34:30Z</time>
      </trkpt>
      <trkpt lat="42.41722" lon="2.23749">
        <ele>2497.16</ele>
        <time>2017-02-07T09:34:51Z</time>
      </trkpt>
      <trkpt lat="42.41756" lon="2.23683">
        <ele>2493.32</ele>
        <time>2017-02-07T09:35:26Z</time>
      </trkpt>
      <trkpt lat="42.41758" lon="2.2368">
        <ele>2493.32</ele>
        <time>2017-02-07T09:35:27Z</time>
      </trkpt>
      <trkpt lat="42.41767" lon="2.2366">
        <ele>2488.99</ele>
        <time>2017-02-07T09:35:32Z</time>
      </trkpt>
      <trkpt lat="42.41769" lon="2.23658">
        <ele>2488.99</ele>
        <time>2017-02-07T09:35:33Z</time>
      </trkpt>
      <trkpt lat="42.41769" lon="2.23658">
        <ele>2488.99</ele>
        <time>2017-02-07T09:35:50Z</time>
      </trkpt>
      <trkpt lat="42.41771" lon="2.23645">
        <ele>2485.63</ele>
        <time>2017-02-07T09:35:54Z</time>
      </trkpt>
      <trkpt lat="42.41783" lon="2.23612">
        <ele>2480.82</ele>
        <time>2017-02-07T09:36:02Z</time>
      </trkpt>
      <trkpt lat="42.41784" lon="2.23594">
        <ele>2476.97</ele>
        <time>2017-02-07T09:36:05Z</time>
      </trkpt>
      <trkpt lat="42.41783" lon="2.23569">
        <ele>2476.97</ele>
        <time>2017-02-07T09:36:30Z</time>
      </trkpt>
      <trkpt lat="42.41782" lon="2.23559">
        <ele>2471.69</ele>
        <time>2017-02-07T09:36:33Z</time>
      </trkpt>
      <trkpt lat="42.41779" lon="2.23543">
        <ele>2464.96</ele>
        <time>2017-02-07T09:36:35Z</time>
      </trkpt>
      <trkpt lat="42.41778" lon="2.23535">
        <ele>2464.96</ele>
        <time>2017-02-07T09:36:36Z</time>
      </trkpt>
      <trkpt lat="42.41774" lon="2.23519">
        <ele>2459.67</ele>
        <time>2017-02-07T09:36:38Z</time>
      </trkpt>
      <trkpt lat="42.41776" lon="2.23504">
        <ele>2456.79</ele>
        <time>2017-02-07T09:36:40Z</time>
      </trkpt>
      <trkpt lat="42.41776" lon="2.23482">
        <ele>2445.25</ele>
        <time>2017-02-07T09:36:43Z</time>
      </trkpt>
      <trkpt lat="42.41777" lon="2.23475">
        <ele>2447.17</ele>
        <time>2017-02-07T09:36:44Z</time>
      </trkpt>
      <trkpt lat="42.41784" lon="2.23453">
        <ele>2443.33</ele>
        <time>2017-02-07T09:36:47Z</time>
      </trkpt>
      <trkpt lat="42.41786" lon="2.23445">
        <ele>2443.33</ele>
        <time>2017-02-07T09:36:48Z</time>
      </trkpt>
      <trkpt lat="42.41803" lon="2.23378">
        <ele>2438.52</ele>
        <time>2017-02-07T09:37:30Z</time>
      </trkpt>
      <trkpt lat="42.41805" lon="2.23339">
        <ele>2437.56</ele>
        <time>2017-02-07T09:37:43Z</time>
      </trkpt>
      <trkpt lat="42.41805" lon="2.23326">
        <ele>2433.71</ele>
        <time>2017-02-07T09:37:52Z</time>
      </trkpt>
      <trkpt lat="42.41804" lon="2.23294">
        <ele>2432.27</ele>
        <time>2017-02-07T09:37:59Z</time>
      </trkpt>
      <trkpt lat="42.418" lon="2.23238">
        <ele>2434.2</ele>
        <time>2017-02-07T09:46:35Z</time>
      </trkpt>
      <trkpt lat="42.41814" lon="2.23193">
        <ele>2438.52</ele>
        <time>2017-02-07T09:47:24Z</time>
      </trkpt>
      <trkpt lat="42.41819" lon="2.23178">
        <ele>2442.85</ele>
        <time>2017-02-07T09:47:39Z</time>
      </trkpt>
      <trkpt lat="42.41823" lon="2.23172">
        <ele>2441.41</ele>
        <time>2017-02-07T09:47:47Z</time>
      </trkpt>
      <trkpt lat="42.4185" lon="2.23137">
        <ele>2440.92</ele>
        <time>2017-02-07T09:48:31Z</time>
      </trkpt>
      <trkpt lat="42.41867" lon="2.23098">
        <ele>2439</ele>
        <time>2017-02-07T09:49:02Z</time>
      </trkpt>
      <trkpt lat="42.41891" lon="2.23007">
        <ele>2442.37</ele>
        <time>2017-02-07T09:50:15Z</time>
      </trkpt>
      <trkpt lat="42.41917" lon="2.2293">
        <ele>2437.08</ele>
        <time>2017-02-07T09:51:09Z</time>
      </trkpt>
      <trkpt lat="42.41915" lon="2.22898">
        <ele>2431.31</ele>
        <time>2017-02-07T09:51:18Z</time>
      </trkpt>
      <trkpt lat="42.41916" lon="2.22863">
        <ele>2426.99</ele>
        <time>2017-02-07T09:51:35Z</time>
      </trkpt>
      <trkpt lat="42.41913" lon="2.22844">
        <ele>2423.62</ele>
        <time>2017-02-07T09:51:39Z</time>
      </trkpt>
      <trkpt lat="42.41912" lon="2.22839">
        <ele>2423.62</ele>
        <time>2017-02-07T09:51:40Z</time>
      </trkpt>
      <trkpt lat="42.41893" lon="2.22792">
        <ele>2418.33</ele>
        <time>2017-02-07T09:51:55Z</time>
      </trkpt>
      <trkpt lat="42.41869" lon="2.22732">
        <ele>2426.99</ele>
        <time>2017-02-07T10:03:33Z</time>
      </trkpt>
      <trkpt lat="42.41869" lon="2.22732">
        <ele>2426.99</ele>
        <time>2017-02-07T10:03:34Z</time>
      </trkpt>
      <trkpt lat="42.41869" lon="2.22716">
        <ele>2425.54</ele>
        <time>2017-02-07T10:04:06Z</time>
      </trkpt>
      <trkpt lat="42.41865" lon="2.22657">
        <ele>2425.54</ele>
        <time>2017-02-07T10:05:35Z</time>
      </trkpt>
      <trkpt lat="42.41863" lon="2.22648">
        <ele>2431.31</ele>
        <time>2017-02-07T10:05:46Z</time>
      </trkpt>
      <trkpt lat="42.41863" lon="2.22647">
        <ele>2431.31</ele>
        <time>2017-02-07T10:05:47Z</time>
      </trkpt>
      <trkpt lat="42.41859" lon="2.22617">
        <ele>2435.64</ele>
        <time>2017-02-07T10:06:34Z</time>
      </trkpt>
      <trkpt lat="42.41858" lon="2.22591">
        <ele>2441.89</ele>
        <time>2017-02-07T10:07:19Z</time>
      </trkpt>
      <trkpt lat="42.41856" lon="2.22577">
        <ele>2440.44</ele>
        <time>2017-02-07T10:07:36Z</time>
      </trkpt>
      <trkpt lat="42.41856" lon="2.22557">
        <ele>2443.33</ele>
        <time>2017-02-07T10:08:21Z</time>
      </trkpt>
      <trkpt lat="42.41855" lon="2.22553">
        <ele>2446.69</ele>
        <time>2017-02-07T10:08:46Z</time>
      </trkpt>
      <trkpt lat="42.41855" lon="2.22536">
        <ele>2452.94</ele>
        <time>2017-02-07T10:09:21Z</time>
      </trkpt>
      <trkpt lat="42.41859" lon="2.22477">
        <ele>2453.42</ele>
        <time>2017-02-07T10:11:20Z</time>
      </trkpt>
      <trkpt lat="42.41859" lon="2.22476">
        <ele>2459.19</ele>
        <time>2017-02-07T10:11:22Z</time>
      </trkpt>
      <trkpt lat="42.41858" lon="2.22463">
        <ele>2463.52</ele>
        <time>2017-02-07T10:11:41Z</time>
      </trkpt>
      <trkpt lat="42.41846" lon="2.22385">
        <ele>2467.36</ele>
        <time>2017-02-07T10:13:02Z</time>
      </trkpt>
      <trkpt lat="42.41843" lon="2.22352">
        <ele>2472.17</ele>
        <time>2017-02-07T10:13:59Z</time>
      </trkpt>
      <trkpt lat="42.41845" lon="2.22336">
        <ele>2476.49</ele>
        <time>2017-02-07T10:14:41Z</time>
      </trkpt>
      <trkpt lat="42.41846" lon="2.22308">
        <ele>2480.34</ele>
        <time>2017-02-07T10:15:33Z</time>
      </trkpt>
      <trkpt lat="42.41847" lon="2.22304">
        <ele>2483.7</ele>
        <time>2017-02-07T10:15:42Z</time>
      </trkpt>
      <trkpt lat="42.41847" lon="2.22296">
        <ele>2483.22</ele>
        <time>2017-02-07T10:16:03Z</time>
      </trkpt>
      <trkpt lat="42.41844" lon="2.22274">
        <ele>2488.03</ele>
        <time>2017-02-07T10:16:39Z</time>
      </trkpt>
      <trkpt lat="42.41853" lon="2.22272">
        <ele>2491.39</ele>
        <time>2017-02-07T10:16:56Z</time>
      </trkpt>
      <trkpt lat="42.4185" lon="2.2225">
        <ele>2497.16</ele>
        <time>2017-02-07T10:17:41Z</time>
      </trkpt>
      <trkpt lat="42.41846" lon="2.22229">
        <ele>2501.49</ele>
        <time>2017-02-07T10:18:18Z</time>
      </trkpt>
      <trkpt lat="42.41844" lon="2.22212">
        <ele>2505.33</ele>
        <time>2017-02-07T10:18:54Z</time>
      </trkpt>
      <trkpt lat="42.41839" lon="2.22191">
        <ele>2510.14</ele>
        <time>2017-02-07T10:19:35Z</time>
      </trkpt>
      <trkpt lat="42.41838" lon="2.22175">
        <ele>2514.47</ele>
        <time>2017-02-07T10:20:15Z</time>
      </trkpt>
      <trkpt lat="42.41838" lon="2.22168">
        <ele>2517.83</ele>
        <time>2017-02-07T10:20:35Z</time>
      </trkpt>
      <trkpt lat="42.41825" lon="2.22154">
        <ele>2523.6</ele>
        <time>2017-02-07T10:21:15Z</time>
      </trkpt>
      <trkpt lat="42.41823" lon="2.22142">
        <ele>2528.89</ele>
        <time>2017-02-07T10:21:50Z</time>
      </trkpt>
      <trkpt lat="42.41827" lon="2.22137">
        <ele>2528.89</ele>
        <time>2017-02-07T10:22:06Z</time>
      </trkpt>
      <trkpt lat="42.41817" lon="2.22119">
        <ele>2533.69</ele>
        <time>2017-02-07T10:22:43Z</time>
      </trkpt>
      <trkpt lat="42.41807" lon="2.22101">
        <ele>2538.5</ele>
        <time>2017-02-07T10:23:22Z</time>
      </trkpt>
      <trkpt lat="42.41794" lon="2.22082">
        <ele>2543.79</ele>
        <time>2017-02-07T10:24:05Z</time>
      </trkpt>
      <trkpt lat="42.41785" lon="2.22063">
        <ele>2551</ele>
        <time>2017-02-07T10:24:46Z</time>
      </trkpt>
      <trkpt lat="42.41785" lon="2.22062">
        <ele>2551</ele>
        <time>2017-02-07T10:24:47Z</time>
      </trkpt>
      <trkpt lat="42.41788" lon="2.22032">
        <ele>2555.32</ele>
        <time>2017-02-07T10:25:42Z</time>
      </trkpt>
      <trkpt lat="42.41788" lon="2.22008">
        <ele>2560.13</ele>
        <time>2017-02-07T10:26:18Z</time>
      </trkpt>
      <trkpt lat="42.41785" lon="2.21982">
        <ele>2564.45</ele>
        <time>2017-02-07T10:26:58Z</time>
      </trkpt>
      <trkpt lat="42.41786" lon="2.21957">
        <ele>2569.26</ele>
        <time>2017-02-07T10:27:38Z</time>
      </trkpt>
      <trkpt lat="42.41785" lon="2.21935">
        <ele>2571.18</ele>
        <time>2017-02-07T10:28:11Z</time>
      </trkpt>
      <trkpt lat="42.41786" lon="2.21926">
        <ele>2574.55</ele>
        <time>2017-02-07T10:28:24Z</time>
      </trkpt>
      <trkpt lat="42.41788" lon="2.21878">
        <ele>2578.87</ele>
        <time>2017-02-07T10:29:32Z</time>
      </trkpt>
      <trkpt lat="42.41788" lon="2.21819">
        <ele>2582.72</ele>
        <time>2017-02-07T10:30:30Z</time>
      </trkpt>
      <trkpt lat="42.41786" lon="2.21744">
        <ele>2588.49</ele>
        <time>2017-02-07T10:31:58Z</time>
      </trkpt>
      <trkpt lat="42.41795" lon="2.21703">
        <ele>2594.74</ele>
        <time>2017-02-07T10:32:51Z</time>
      </trkpt>
      <trkpt lat="42.41797" lon="2.21698">
        <ele>2594.74</ele>
        <time>2017-02-07T10:32:56Z</time>
      </trkpt>
      <trkpt lat="42.41833" lon="2.21644">
        <ele>2596.18</ele>
        <time>2017-02-07T10:34:05Z</time>
      </trkpt>
      <trkpt lat="42.41853" lon="2.21594">
        <ele>2594.74</ele>
        <time>2017-02-07T10:35:32Z</time>
      </trkpt>
      <trkpt lat="42.41856" lon="2.21542">
        <ele>2599.54</ele>
        <time>2017-02-07T10:36:27Z</time>
      </trkpt>
      <trkpt lat="42.41857" lon="2.21524">
        <ele>2603.39</ele>
        <time>2017-02-07T10:36:53Z</time>
      </trkpt>
      <trkpt lat="42.41858" lon="2.21517">
        <ele>2601.95</ele>
        <time>2017-02-07T10:36:59Z</time>
      </trkpt>
      <trkpt lat="42.4186" lon="2.21467">
        <ele>2603.39</ele>
        <time>2017-02-07T10:38:25Z</time>
      </trkpt>
      <trkpt lat="42.41846" lon="2.21442">
        <ele>2607.71</ele>
        <time>2017-02-07T10:39:11Z</time>
      </trkpt>
      <trkpt lat="42.41838" lon="2.2144">
        <ele>2607.71</ele>
        <time>2017-02-07T10:39:28Z</time>
      </trkpt>
      <trkpt lat="42.41825" lon="2.2144">
        <ele>2611.08</ele>
        <time>2017-02-07T10:40:13Z</time>
      </trkpt>
      <trkpt lat="42.41818" lon="2.21436">
        <ele>2614.92</ele>
        <time>2017-02-07T10:40:52Z</time>
      </trkpt>
      <trkpt lat="42.4182" lon="2.21428">
        <ele>2618.29</ele>
        <time>2017-02-07T10:41:25Z</time>
      </trkpt>
      <trkpt lat="42.41809" lon="2.21422">
        <ele>2621.65</ele>
        <time>2017-02-07T10:42:02Z</time>
      </trkpt>
      <trkpt lat="42.41792" lon="2.21407">
        <ele>2626.94</ele>
        <time>2017-02-07T10:42:46Z</time>
      </trkpt>
      <trkpt lat="42.41784" lon="2.21381">
        <ele>2630.79</ele>
        <time>2017-02-07T10:43:29Z</time>
      </trkpt>
      <trkpt lat="42.41777" lon="2.21347">
        <ele>2634.15</ele>
        <time>2017-02-07T10:44:17Z</time>
      </trkpt>
      <trkpt lat="42.41777" lon="2.21335">
        <ele>2634.15</ele>
        <time>2017-02-07T10:44:36Z</time>
      </trkpt>
      <trkpt lat="42.41781" lon="2.21308">
        <ele>2637.51</ele>
        <time>2017-02-07T10:45:15Z</time>
      </trkpt>
      <trkpt lat="42.41787" lon="2.21272">
        <ele>2640.88</ele>
        <time>2017-02-07T10:45:57Z</time>
      </trkpt>
      <trkpt lat="42.41788" lon="2.21266">
        <ele>2640.88</ele>
        <time>2017-02-07T10:46:08Z</time>
      </trkpt>
      <trkpt lat="42.41795" lon="2.21189">
        <ele>2644.24</ele>
        <time>2017-02-07T10:47:21Z</time>
      </trkpt>
      <trkpt lat="42.41803" lon="2.21115">
        <ele>2647.61</ele>
        <time>2017-02-07T10:48:32Z</time>
      </trkpt>
      <trkpt lat="42.418" lon="2.21076">
        <ele>2651.93</ele>
        <time>2017-02-07T10:49:15Z</time>
      </trkpt>
      <trkpt lat="42.41801" lon="2.21064">
        <ele>2651.93</ele>
        <time>2017-02-07T10:49:31Z</time>
      </trkpt>
      <trkpt lat="42.41799" lon="2.21029">
        <ele>2655.3</ele>
        <time>2017-02-07T10:50:23Z</time>
      </trkpt>
      <trkpt lat="42.41802" lon="2.21011">
        <ele>2660.11</ele>
        <time>2017-02-07T10:50:57Z</time>
      </trkpt>
      <trkpt lat="42.41808" lon="2.20991">
        <ele>2665.39</ele>
        <time>2017-02-07T10:51:35Z</time>
      </trkpt>
      <trkpt lat="42.41808" lon="2.20995">
        <ele>2663.95</ele>
        <time>2017-02-07T10:51:43Z</time>
      </trkpt>
      <trkpt lat="42.41806" lon="2.20996">
        <ele>2663.47</ele>
        <time>2017-02-07T10:53:26Z</time>
      </trkpt>
      <trkpt lat="42.41808" lon="2.20994">
        <ele>2664.91</ele>
        <time>2017-02-07T10:54:43Z</time>
      </trkpt>
      <trkpt lat="42.41809" lon="2.20976">
        <ele>2668.76</ele>
        <time>2017-02-07T10:55:29Z</time>
      </trkpt>
      <trkpt lat="42.41822" lon="2.20962">
        <ele>2673.56</ele>
        <time>2017-02-07T10:56:13Z</time>
      </trkpt>
      <trkpt lat="42.41818" lon="2.20945">
        <ele>2677.89</ele>
        <time>2017-02-07T10:56:52Z</time>
      </trkpt>
      <trkpt lat="42.41827" lon="2.20941">
        <ele>2682.22</ele>
        <time>2017-02-07T10:57:14Z</time>
      </trkpt>
      <trkpt lat="42.41831" lon="2.2094">
        <ele>2681.25</ele>
        <time>2017-02-07T10:57:34Z</time>
      </trkpt>
      <trkpt lat="42.41835" lon="2.20929">
        <ele>2686.54</ele>
        <time>2017-02-07T11:04:30Z</time>
      </trkpt>
      <trkpt lat="42.41819" lon="2.20907">
        <ele>2689.91</ele>
        <time>2017-02-07T11:05:51Z</time>
      </trkpt>
      <trkpt lat="42.4181" lon="2.209">
        <ele>2693.27</ele>
        <time>2017-02-07T11:06:15Z</time>
      </trkpt>
      <trkpt lat="42.41787" lon="2.20899">
        <ele>2696.64</ele>
        <time>2017-02-07T11:07:16Z</time>
      </trkpt>
      <trkpt lat="42.41762" lon="2.20901">
        <ele>2702.4</ele>
        <time>2017-02-07T11:08:04Z</time>
      </trkpt>
      <trkpt lat="42.41723" lon="2.20905">
        <ele>2706.25</ele>
        <time>2017-02-07T11:09:40Z</time>
      </trkpt>
      <trkpt lat="42.417" lon="2.20917">
        <ele>2709.61</ele>
        <time>2017-02-07T11:10:35Z</time>
      </trkpt>
      <trkpt lat="42.41683" lon="2.20927">
        <ele>2715.86</ele>
        <time>2017-02-07T11:20:36Z</time>
      </trkpt>
      <trkpt lat="42.41682" lon="2.20928">
        <ele>2714.9</ele>
        <time>2017-02-07T11:20:40Z</time>
      </trkpt>
      <trkpt lat="42.41676" lon="2.20919">
        <ele>2718.75</ele>
        <time>2017-02-07T11:22:10Z</time>
      </trkpt>
      <trkpt lat="42.41672" lon="2.20903">
        <ele>2726.44</ele>
        <time>2017-02-07T11:23:15Z</time>
      </trkpt>
      <trkpt lat="42.41671" lon="2.20903">
        <ele>2726.44</ele>
        <time>2017-02-07T11:23:16Z</time>
      </trkpt>
      <trkpt lat="42.41661" lon="2.20906">
        <ele>2732.68</ele>
        <time>2017-02-07T11:24:29Z</time>
      </trkpt>
      <trkpt lat="42.41637" lon="2.2091">
        <ele>2739.89</ele>
        <time>2017-02-07T11:26:26Z</time>
      </trkpt>
      <trkpt lat="42.41624" lon="2.20905">
        <ele>2749.03</ele>
        <time>2017-02-07T11:27:56Z</time>
      </trkpt>
      <trkpt lat="42.41602" lon="2.2091">
        <ele>2758.16</ele>
        <time>2017-02-07T11:29:25Z</time>
      </trkpt>
      <trkpt lat="42.41591" lon="2.2092">
        <ele>2763.93</ele>
        <time>2017-02-07T11:30:08Z</time>
      </trkpt>
      <trkpt lat="42.41587" lon="2.20918">
        <ele>2768.25</ele>
        <time>2017-02-07T11:30:16Z</time>
      </trkpt>
      <trkpt lat="42.41579" lon="2.20917">
        <ele>2771.62</ele>
        <time>2017-02-07T11:30:41Z</time>
      </trkpt>
      <trkpt lat="42.41568" lon="2.20919">
        <ele>2776.42</ele>
        <time>2017-02-07T11:31:29Z</time>
      </trkpt>
      <trkpt lat="42.41564" lon="2.20917">
        <ele>2779.79</ele>
        <time>2017-02-07T11:31:41Z</time>
      </trkpt>
      <trkpt lat="42.41562" lon="2.20904">
        <ele>2779.31</ele>
        <time>2017-02-07T11:34:14Z</time>
      </trkpt>
      <trkpt lat="42.41608" lon="2.20754">
        <ele>2779.79</ele>
        <time>2017-02-07T11:37:31Z</time>
      </trkpt>
      <trkpt lat="42.41629" lon="2.2072">
        <ele>2784.12</ele>
        <time>2017-02-07T11:38:53Z</time>
      </trkpt>
      <trkpt lat="42.41645" lon="2.20698">
        <ele>2787.48</ele>
        <time>2017-02-07T11:40:09Z</time>
      </trkpt>
      <trkpt lat="42.4167" lon="2.20639">
        <ele>2794.21</ele>
        <time>2017-02-07T11:52:03Z</time>
      </trkpt>
      <trkpt lat="42.41709" lon="2.20472">
        <ele>2797.09</ele>
        <time>2017-02-07T11:54:52Z</time>
      </trkpt>
      <trkpt lat="42.41702" lon="2.20394">
        <ele>2792.29</ele>
        <time>2017-02-07T11:56:01Z</time>
      </trkpt>
      <trkpt lat="42.41687" lon="2.20352">
        <ele>2790.84</ele>
        <time>2017-02-07T11:56:40Z</time>
      </trkpt>
      <trkpt lat="42.41666" lon="2.20288">
        <ele>2793.25</ele>
        <time>2017-02-07T11:59:20Z</time>
      </trkpt>
      <trkpt lat="42.41657" lon="2.20264">
        <ele>2794.21</ele>
        <time>2017-02-07T12:00:02Z</time>
      </trkpt>
      <trkpt lat="42.41652" lon="2.20239">
        <ele>2798.05</ele>
        <time>2017-02-07T12:00:40Z</time>
      </trkpt>
      <trkpt lat="42.41644" lon="2.20203">
        <ele>2801.9</ele>
        <time>2017-02-07T12:01:42Z</time>
      </trkpt>
      <trkpt lat="42.41631" lon="2.20177">
        <ele>2806.23</ele>
        <time>2017-02-07T12:02:40Z</time>
      </trkpt>
      <trkpt lat="42.41634" lon="2.201">
        <ele>2808.15</ele>
        <time>2017-02-07T12:04:33Z</time>
      </trkpt>
      <trkpt lat="42.41645" lon="2.20071">
        <ele>2806.71</ele>
        <time>2017-02-07T12:05:11Z</time>
      </trkpt>
      <trkpt lat="42.41646" lon="2.20054">
        <ele>2804.78</ele>
        <time>2017-02-07T12:05:32Z</time>
      </trkpt>
      <trkpt lat="42.41641" lon="2.1997">
        <ele>2806.23</ele>
        <time>2017-02-07T12:07:57Z</time>
      </trkpt>
      <trkpt lat="42.41643" lon="2.19969">
        <ele>2808.15</ele>
        <time>2017-02-07T12:08:22Z</time>
      </trkpt>
      <trkpt lat="42.41655" lon="2.19953">
        <ele>2801.9</ele>
        <time>2017-02-07T12:08:43Z</time>
      </trkpt>
      <trkpt lat="42.41661" lon="2.19939">
        <ele>2797.09</ele>
        <time>2017-02-07T12:08:54Z</time>
      </trkpt>
      <trkpt lat="42.41675" lon="2.19922">
        <ele>2793.73</ele>
        <time>2017-02-07T12:09:35Z</time>
      </trkpt>
      <trkpt lat="42.41683" lon="2.19912">
        <ele>2790.36</ele>
        <time>2017-02-07T12:09:44Z</time>
      </trkpt>
      <trkpt lat="42.41692" lon="2.19893">
        <ele>2785.08</ele>
        <time>2017-02-07T12:10:01Z</time>
      </trkpt>
      <trkpt lat="42.41705" lon="2.19868">
        <ele>2779.31</ele>
        <time>2017-02-07T12:10:21Z</time>
      </trkpt>
      <trkpt lat="42.41705" lon="2.19867">
        <ele>2779.31</ele>
        <time>2017-02-07T12:10:22Z</time>
      </trkpt>
      <trkpt lat="42.41716" lon="2.19851">
        <ele>2774.98</ele>
        <time>2017-02-07T12:11:21Z</time>
      </trkpt>
      <trkpt lat="42.41728" lon="2.19843">
        <ele>2772.58</ele>
        <time>2017-02-07T12:11:38Z</time>
      </trkpt>
      <trkpt lat="42.41728" lon="2.19836">
        <ele>2768.73</ele>
        <time>2017-02-07T12:11:47Z</time>
      </trkpt>
      <trkpt lat="42.41732" lon="2.19819">
        <ele>2765.37</ele>
        <time>2017-02-07T12:11:58Z</time>
      </trkpt>
      <trkpt lat="42.41741" lon="2.19798">
        <ele>2762</ele>
        <time>2017-02-07T12:12:08Z</time>
      </trkpt>
      <trkpt lat="42.4175" lon="2.19784">
        <ele>2758.64</ele>
        <time>2017-02-07T12:12:16Z</time>
      </trkpt>
      <trkpt lat="42.41756" lon="2.19771">
        <ele>2754.8</ele>
        <time>2017-02-07T12:12:20Z</time>
      </trkpt>
      <trkpt lat="42.41768" lon="2.19743">
        <ele>2749.03</ele>
        <time>2017-02-07T12:12:28Z</time>
      </trkpt>
      <trkpt lat="42.41771" lon="2.1972">
        <ele>2746.14</ele>
        <time>2017-02-07T12:12:33Z</time>
      </trkpt>
      <trkpt lat="42.41772" lon="2.19689">
        <ele>2744.7</ele>
        <time>2017-02-07T12:13:40Z</time>
      </trkpt>
      <trkpt lat="42.41787" lon="2.19632">
        <ele>2739.89</ele>
        <time>2017-02-07T12:15:12Z</time>
      </trkpt>
      <trkpt lat="42.41787" lon="2.19631">
        <ele>2739.89</ele>
        <time>2017-02-07T12:15:13Z</time>
      </trkpt>
      <trkpt lat="42.41801" lon="2.196">
        <ele>2733.17</ele>
        <time>2017-02-07T12:15:42Z</time>
      </trkpt>
      <trkpt lat="42.41806" lon="2.1959">
        <ele>2731.24</ele>
        <time>2017-02-07T12:15:54Z</time>
      </trkpt>
      <trkpt lat="42.41814" lon="2.19556">
        <ele>2729.32</ele>
        <time>2017-02-07T12:16:21Z</time>
      </trkpt>
      <trkpt lat="42.41866" lon="2.19454">
        <ele>2729.32</ele>
        <time>2017-02-07T12:43:23Z</time>
      </trkpt>
      <trkpt lat="42.41867" lon="2.19422">
        <ele>2734.13</ele>
        <time>2017-02-07T12:44:08Z</time>
      </trkpt>
      <trkpt lat="42.41865" lon="2.19389">
        <ele>2738.45</ele>
        <time>2017-02-07T12:44:52Z</time>
      </trkpt>
      <trkpt lat="42.41863" lon="2.19372">
        <ele>2743.26</ele>
        <time>2017-02-07T12:45:30Z</time>
      </trkpt>
      <trkpt lat="42.41863" lon="2.1937">
        <ele>2742.3</ele>
        <time>2017-02-07T12:45:32Z</time>
      </trkpt>
      <trkpt lat="42.4186" lon="2.19351">
        <ele>2745.66</ele>
        <time>2017-02-07T12:46:02Z</time>
      </trkpt>
      <trkpt lat="42.41858" lon="2.1933">
        <ele>2749.51</ele>
        <time>2017-02-07T12:46:42Z</time>
      </trkpt>
      <trkpt lat="42.41857" lon="2.19317">
        <ele>2753.83</ele>
        <time>2017-02-07T12:47:06Z</time>
      </trkpt>
      <trkpt lat="42.41857" lon="2.19317">
        <ele>2753.83</ele>
        <time>2017-02-07T12:47:07Z</time>
      </trkpt>
      <trkpt lat="42.41855" lon="2.19295">
        <ele>2757.2</ele>
        <time>2017-02-07T12:47:48Z</time>
      </trkpt>
      <trkpt lat="42.41851" lon="2.19277">
        <ele>2762.49</ele>
        <time>2017-02-07T12:48:25Z</time>
      </trkpt>
      <trkpt lat="42.41855" lon="2.19254">
        <ele>2768.25</ele>
        <time>2017-02-07T12:49:22Z</time>
      </trkpt>
      <trkpt lat="42.4186" lon="2.19231">
        <ele>2773.06</ele>
        <time>2017-02-07T12:50:02Z</time>
      </trkpt>
      <trkpt lat="42.41863" lon="2.1921">
        <ele>2777.87</ele>
        <time>2017-02-07T12:50:42Z</time>
      </trkpt>
      <trkpt lat="42.41859" lon="2.19187">
        <ele>2782.19</ele>
        <time>2017-02-07T12:51:22Z</time>
      </trkpt>
      <trkpt lat="42.41853" lon="2.19163">
        <ele>2787</ele>
        <time>2017-02-07T12:52:03Z</time>
      </trkpt>
      <trkpt lat="42.41844" lon="2.19146">
        <ele>2790.36</ele>
        <time>2017-02-07T12:52:45Z</time>
      </trkpt>
      <trkpt lat="42.4183" lon="2.19122">
        <ele>2794.69</ele>
        <time>2017-02-07T12:53:24Z</time>
      </trkpt>
      <trkpt lat="42.41819" lon="2.191">
        <ele>2798.54</ele>
        <time>2017-02-07T12:54:00Z</time>
      </trkpt>
      <trkpt lat="42.41803" lon="2.19088">
        <ele>2802.38</ele>
        <time>2017-02-07T12:54:28Z</time>
      </trkpt>
      <trkpt lat="42.41777" lon="2.19084">
        <ele>2807.19</ele>
        <time>2017-02-07T12:55:08Z</time>
      </trkpt>
      <trkpt lat="42.41753" lon="2.19073">
        <ele>2812.47</ele>
        <time>2017-02-07T12:55:48Z</time>
      </trkpt>
      <trkpt lat="42.4173" lon="2.19048">
        <ele>2815.36</ele>
        <time>2017-02-07T12:58:10Z</time>
      </trkpt>
      <trkpt lat="42.4173" lon="2.19048">
        <ele>2813.92</ele>
        <time>2017-02-07T12:58:11Z</time>
      </trkpt>
      <trkpt lat="42.41731" lon="2.19017">
        <ele>2805.26</ele>
        <time>2017-02-07T13:06:03Z</time>
      </trkpt>
      <trkpt lat="42.41742" lon="2.18985">
        <ele>2803.82</ele>
        <time>2017-02-07T13:06:09Z</time>
      </trkpt>
      <trkpt lat="42.41749" lon="2.18968">
        <ele>2803.34</ele>
        <time>2017-02-07T13:07:22Z</time>
      </trkpt>
      <trkpt lat="42.41747" lon="2.18966">
        <ele>2801.42</ele>
        <time>2017-02-07T13:09:48Z</time>
      </trkpt>
      <trkpt lat="42.41735" lon="2.18972">
        <ele>2798.05</ele>
        <time>2017-02-07T13:09:55Z</time>
      </trkpt>
      <trkpt lat="42.41727" lon="2.1898">
        <ele>2795.65</ele>
        <time>2017-02-07T13:10:00Z</time>
      </trkpt>
      <trkpt lat="42.41698" lon="2.18967">
        <ele>2778.35</ele>
        <time>2017-02-07T13:10:35Z</time>
      </trkpt>
      <trkpt lat="42.41691" lon="2.18963">
        <ele>2771.62</ele>
        <time>2017-02-07T13:10:37Z</time>
      </trkpt>
      <trkpt lat="42.41686" lon="2.18958">
        <ele>2768.73</ele>
        <time>2017-02-07T13:10:56Z</time>
      </trkpt>
      <trkpt lat="42.41677" lon="2.18955">
        <ele>2765.85</ele>
        <time>2017-02-07T13:11:21Z</time>
      </trkpt>
      <trkpt lat="42.4167" lon="2.18961">
        <ele>2762</ele>
        <time>2017-02-07T13:11:24Z</time>
      </trkpt>
      <trkpt lat="42.41664" lon="2.18953">
        <ele>2753.83</ele>
        <time>2017-02-07T13:11:29Z</time>
      </trkpt>
      <trkpt lat="42.41664" lon="2.18936">
        <ele>2749.99</ele>
        <time>2017-02-07T13:11:32Z</time>
      </trkpt>
      <trkpt lat="42.41664" lon="2.18914">
        <ele>2749.51</ele>
        <time>2017-02-07T13:11:56Z</time>
      </trkpt>
      <trkpt lat="42.41651" lon="2.1891">
        <ele>2742.3</ele>
        <time>2017-02-07T13:12:02Z</time>
      </trkpt>
      <trkpt lat="42.41644" lon="2.18911">
        <ele>2739.41</ele>
        <time>2017-02-07T13:12:04Z</time>
      </trkpt>
      <trkpt lat="42.41635" lon="2.18912">
        <ele>2737.49</ele>
        <time>2017-02-07T13:12:06Z</time>
      </trkpt>
      <trkpt lat="42.41631" lon="2.18912">
        <ele>2732.68</ele>
        <time>2017-02-07T13:12:07Z</time>
      </trkpt>
      <trkpt lat="42.41618" lon="2.18918">
        <ele>2728.84</ele>
        <time>2017-02-07T13:12:10Z</time>
      </trkpt>
      <trkpt lat="42.41616" lon="2.18919">
        <ele>2724.51</ele>
        <time>2017-02-07T13:12:11Z</time>
      </trkpt>
      <trkpt lat="42.41614" lon="2.18918">
        <ele>2724.51</ele>
        <time>2017-02-07T13:12:12Z</time>
      </trkpt>
      <trkpt lat="42.41609" lon="2.18916">
        <ele>2723.07</ele>
        <time>2017-02-07T13:12:49Z</time>
      </trkpt>
      <trkpt lat="42.41597" lon="2.18919">
        <ele>2717.78</ele>
        <time>2017-02-07T13:12:54Z</time>
      </trkpt>
      <trkpt lat="42.41595" lon="2.18916">
        <ele>2716.82</ele>
        <time>2017-02-07T13:14:02Z</time>
      </trkpt>
      <trkpt lat="42.41587" lon="2.18924">
        <ele>2713.46</ele>
        <time>2017-02-07T13:14:06Z</time>
      </trkpt>
      <trkpt lat="42.41578" lon="2.18931">
        <ele>2710.09</ele>
        <time>2017-02-07T13:14:09Z</time>
      </trkpt>
      <trkpt lat="42.41558" lon="2.18939">
        <ele>2705.77</ele>
        <time>2017-02-07T13:14:14Z</time>
      </trkpt>
      <trkpt lat="42.41546" lon="2.1894">
        <ele>2701.92</ele>
        <time>2017-02-07T13:14:18Z</time>
      </trkpt>
      <trkpt lat="42.41537" lon="2.18941">
        <ele>2698.08</ele>
        <time>2017-02-07T13:14:20Z</time>
      </trkpt>
      <trkpt lat="42.41522" lon="2.18944">
        <ele>2694.71</ele>
        <time>2017-02-07T13:14:23Z</time>
      </trkpt>
      <trkpt lat="42.41503" lon="2.18947">
        <ele>2690.87</ele>
        <time>2017-02-07T13:14:28Z</time>
      </trkpt>
      <trkpt lat="42.41486" lon="2.1895">
        <ele>2688.94</ele>
        <time>2017-02-07T13:14:55Z</time>
      </trkpt>
      <trkpt lat="42.41486" lon="2.1894">
        <ele>2685.1</ele>
        <time>2017-02-07T13:14:59Z</time>
      </trkpt>
      <trkpt lat="42.41485" lon="2.18928">
        <ele>2678.85</ele>
        <time>2017-02-07T13:15:06Z</time>
      </trkpt>
      <trkpt lat="42.41484" lon="2.18917">
        <ele>2674.04</ele>
        <time>2017-02-07T13:15:09Z</time>
      </trkpt>
      <trkpt lat="42.415" lon="2.18902">
        <ele>2669.24</ele>
        <time>2017-02-07T13:15:14Z</time>
      </trkpt>
      <trkpt lat="42.41511" lon="2.18889">
        <ele>2663.95</ele>
        <time>2017-02-07T13:15:17Z</time>
      </trkpt>
      <trkpt lat="42.41526" lon="2.18866">
        <ele>2663.95</ele>
        <time>2017-02-07T13:16:08Z</time>
      </trkpt>
      <trkpt lat="42.41525" lon="2.18851">
        <ele>2658.66</ele>
        <time>2017-02-07T13:16:12Z</time>
      </trkpt>
      <trkpt lat="42.41525" lon="2.18845">
        <ele>2657.7</ele>
        <time>2017-02-07T13:16:13Z</time>
      </trkpt>
      <trkpt lat="42.41521" lon="2.18818">
        <ele>2652.42</ele>
        <time>2017-02-07T13:16:17Z</time>
      </trkpt>
      <trkpt lat="42.41517" lon="2.18797">
        <ele>2648.09</ele>
        <time>2017-02-07T13:16:20Z</time>
      </trkpt>
      <trkpt lat="42.41511" lon="2.18762">
        <ele>2642.8</ele>
        <time>2017-02-07T13:16:26Z</time>
      </trkpt>
      <trkpt lat="42.4151" lon="2.18753">
        <ele>2642.32</ele>
        <time>2017-02-07T13:16:28Z</time>
      </trkpt>
      <trkpt lat="42.41502" lon="2.1875">
        <ele>2636.07</ele>
        <time>2017-02-07T13:16:31Z</time>
      </trkpt>
      <trkpt lat="42.41496" lon="2.18748">
        <ele>2634.63</ele>
        <time>2017-02-07T13:16:33Z</time>
      </trkpt>
      <trkpt lat="42.41487" lon="2.1875">
        <ele>2629.82</ele>
        <time>2017-02-07T13:16:37Z</time>
      </trkpt>
      <trkpt lat="42.41473" lon="2.18754">
        <ele>2627.9</ele>
        <time>2017-02-07T13:16:44Z</time>
      </trkpt>
      <trkpt lat="42.41457" lon="2.18752">
        <ele>2623.09</ele>
        <time>2017-02-07T13:16:51Z</time>
      </trkpt>
      <trkpt lat="42.41445" lon="2.18738">
        <ele>2618.29</ele>
        <time>2017-02-07T13:16:58Z</time>
      </trkpt>
      <trkpt lat="42.41442" lon="2.18738">
        <ele>2617.33</ele>
        <time>2017-02-07T13:17:16Z</time>
      </trkpt>
      <trkpt lat="42.41436" lon="2.18717">
        <ele>2613.48</ele>
        <time>2017-02-07T13:17:21Z</time>
      </trkpt>
      <trkpt lat="42.4142" lon="2.18685">
        <ele>2608.67</ele>
        <time>2017-02-07T13:17:30Z</time>
      </trkpt>
      <trkpt lat="42.41416" lon="2.18672">
        <ele>2605.31</ele>
        <time>2017-02-07T13:17:33Z</time>
      </trkpt>
      <trkpt lat="42.414" lon="2.18649">
        <ele>2600.98</ele>
        <time>2017-02-07T13:17:38Z</time>
      </trkpt>
      <trkpt lat="42.41394" lon="2.18639">
        <ele>2597.62</ele>
        <time>2017-02-07T13:17:40Z</time>
      </trkpt>
      <trkpt lat="42.4139" lon="2.18617">
        <ele>2595.7</ele>
        <time>2017-02-07T13:17:43Z</time>
      </trkpt>
      <trkpt lat="42.41386" lon="2.18596">
        <ele>2592.33</ele>
        <time>2017-02-07T13:17:46Z</time>
      </trkpt>
      <trkpt lat="42.41387" lon="2.18581">
        <ele>2588.97</ele>
        <time>2017-02-07T13:17:48Z</time>
      </trkpt>
      <trkpt lat="42.41372" lon="2.18547">
        <ele>2587.53</ele>
        <time>2017-02-07T13:17:54Z</time>
      </trkpt>
      <trkpt lat="42.41374" lon="2.18548">
        <ele>2588.97</ele>
        <time>2017-02-07T13:18:39Z</time>
      </trkpt>
      <trkpt lat="42.41377" lon="2.18539">
        <ele>2584.16</ele>
        <time>2017-02-07T13:18:43Z</time>
      </trkpt>
      <trkpt lat="42.41383" lon="2.18514">
        <ele>2580.32</ele>
        <time>2017-02-07T13:18:50Z</time>
      </trkpt>
      <trkpt lat="42.41381" lon="2.18505">
        <ele>2576.95</ele>
        <time>2017-02-07T13:19:02Z</time>
      </trkpt>
      <trkpt lat="42.4138" lon="2.18504">
        <ele>2576.95</ele>
        <time>2017-02-07T13:19:15Z</time>
      </trkpt>
      <trkpt lat="42.41397" lon="2.18494">
        <ele>2572.14</ele>
        <time>2017-02-07T13:19:22Z</time>
      </trkpt>
      <trkpt lat="42.41398" lon="2.18449">
        <ele>2565.9</ele>
        <time>2017-02-07T13:19:29Z</time>
      </trkpt>
      <trkpt lat="42.41395" lon="2.18416">
        <ele>2562.53</ele>
        <time>2017-02-07T13:19:34Z</time>
      </trkpt>
      <trkpt lat="42.41392" lon="2.18396">
        <ele>2559.65</ele>
        <time>2017-02-07T13:20:09Z</time>
      </trkpt>
      <trkpt lat="42.41402" lon="2.18369">
        <ele>2556.76</ele>
        <time>2017-02-07T13:20:17Z</time>
      </trkpt>
      <trkpt lat="42.414" lon="2.18357">
        <ele>2553.4</ele>
        <time>2017-02-07T13:20:20Z</time>
      </trkpt>
      <trkpt lat="42.41398" lon="2.18351">
        <ele>2549.07</ele>
        <time>2017-02-07T13:20:21Z</time>
      </trkpt>
      <trkpt lat="42.41395" lon="2.18339">
        <ele>2548.59</ele>
        <time>2017-02-07T13:20:23Z</time>
      </trkpt>
      <trkpt lat="42.41393" lon="2.18332">
        <ele>2543.79</ele>
        <time>2017-02-07T13:20:24Z</time>
      </trkpt>
      <trkpt lat="42.41389" lon="2.18324">
        <ele>2543.79</ele>
        <time>2017-02-07T13:20:25Z</time>
      </trkpt>
      <trkpt lat="42.41386" lon="2.18316">
        <ele>2538.5</ele>
        <time>2017-02-07T13:20:26Z</time>
      </trkpt>
      <trkpt lat="42.4139" lon="2.183">
        <ele>2536.58</ele>
        <time>2017-02-07T13:20:29Z</time>
      </trkpt>
      <trkpt lat="42.41385" lon="2.18284">
        <ele>2530.81</ele>
        <time>2017-02-07T13:20:32Z</time>
      </trkpt>
      <trkpt lat="42.41385" lon="2.18279">
        <ele>2530.81</ele>
        <time>2017-02-07T13:20:33Z</time>
      </trkpt>
      <trkpt lat="42.41388" lon="2.18273">
        <ele>2529.37</ele>
        <time>2017-02-07T13:20:49Z</time>
      </trkpt>
      <trkpt lat="42.41376" lon="2.18256">
        <ele>2520.23</ele>
        <time>2017-02-07T13:20:54Z</time>
      </trkpt>
      <trkpt lat="42.41368" lon="2.18241">
        <ele>2511.58</ele>
        <time>2017-02-07T13:20:56Z</time>
      </trkpt>
      <trkpt lat="42.41363" lon="2.18225">
        <ele>2508.22</ele>
        <time>2017-02-07T13:20:58Z</time>
      </trkpt>
      <trkpt lat="42.4136" lon="2.18217">
        <ele>2501.49</ele>
        <time>2017-02-07T13:20:59Z</time>
      </trkpt>
      <trkpt lat="42.41356" lon="2.1821">
        <ele>2504.37</ele>
        <time>2017-02-07T13:21:00Z</time>
      </trkpt>
      <trkpt lat="42.41353" lon="2.18204">
        <ele>2496.68</ele>
        <time>2017-02-07T13:21:01Z</time>
      </trkpt>
      <trkpt lat="42.41346" lon="2.18188">
        <ele>2492.84</ele>
        <time>2017-02-07T13:21:05Z</time>
      </trkpt>
      <trkpt lat="42.41345" lon="2.18186">
        <ele>2492.84</ele>
        <time>2017-02-07T13:21:06Z</time>
      </trkpt>
      <trkpt lat="42.41343" lon="2.18189">
        <ele>2490.91</ele>
        <time>2017-02-07T13:21:49Z</time>
      </trkpt>
      <trkpt lat="42.41333" lon="2.18172">
        <ele>2486.11</ele>
        <time>2017-02-07T13:21:52Z</time>
      </trkpt>
      <trkpt lat="42.41328" lon="2.18155">
        <ele>2481.78</ele>
        <time>2017-02-07T13:21:54Z</time>
      </trkpt>
      <trkpt lat="42.41328" lon="2.18148">
        <ele>2483.22</ele>
        <time>2017-02-07T13:21:55Z</time>
      </trkpt>
      <trkpt lat="42.41321" lon="2.18115">
        <ele>2479.38</ele>
        <time>2017-02-07T13:22:01Z</time>
      </trkpt>
      <trkpt lat="42.41317" lon="2.18094">
        <ele>2476.01</ele>
        <time>2017-02-07T13:22:04Z</time>
      </trkpt>
      <trkpt lat="42.41316" lon="2.18079">
        <ele>2472.17</ele>
        <time>2017-02-07T13:22:06Z</time>
      </trkpt>
      <trkpt lat="42.41303" lon="2.18064">
        <ele>2466.88</ele>
        <time>2017-02-07T13:22:14Z</time>
      </trkpt>
      <trkpt lat="42.413" lon="2.18061">
        <ele>2466.88</ele>
        <time>2017-02-07T13:22:15Z</time>
      </trkpt>
      <trkpt lat="42.41286" lon="2.18057">
        <ele>2463.04</ele>
        <time>2017-02-07T13:22:19Z</time>
      </trkpt>
      <trkpt lat="42.41272" lon="2.18041">
        <ele>2458.23</ele>
        <time>2017-02-07T13:22:22Z</time>
      </trkpt>
      <trkpt lat="42.41261" lon="2.1803">
        <ele>2454.38</ele>
        <time>2017-02-07T13:22:25Z</time>
      </trkpt>
      <trkpt lat="42.41261" lon="2.18032">
        <ele>2456.31</ele>
        <time>2017-02-07T13:22:27Z</time>
      </trkpt>
      <trkpt lat="42.41244" lon="2.18024">
        <ele>2450.54</ele>
        <time>2017-02-07T13:22:44Z</time>
      </trkpt>
      <trkpt lat="42.41228" lon="2.18008">
        <ele>2446.21</ele>
        <time>2017-02-07T13:22:48Z</time>
      </trkpt>
      <trkpt lat="42.41209" lon="2.17987">
        <ele>2440.44</ele>
        <time>2017-02-07T13:22:52Z</time>
      </trkpt>
      <trkpt lat="42.41199" lon="2.17973">
        <ele>2437.08</ele>
        <time>2017-02-07T13:22:54Z</time>
      </trkpt>
      <trkpt lat="42.41193" lon="2.17965">
        <ele>2433.23</ele>
        <time>2017-02-07T13:22:55Z</time>
      </trkpt>
      <trkpt lat="42.41157" lon="2.17941">
        <ele>2427.47</ele>
        <time>2017-02-07T13:23:02Z</time>
      </trkpt>
      <trkpt lat="42.41137" lon="2.17941">
        <ele>2426.02</ele>
        <time>2017-02-07T13:23:08Z</time>
      </trkpt>
      <trkpt lat="42.41137" lon="2.17943">
        <ele>2426.5</ele>
        <time>2017-02-07T13:23:54Z</time>
      </trkpt>
      <trkpt lat="42.41136" lon="2.1793">
        <ele>2420.26</ele>
        <time>2017-02-07T13:23:57Z</time>
      </trkpt>
      <trkpt lat="42.41131" lon="2.17894">
        <ele>2414.49</ele>
        <time>2017-02-07T13:24:01Z</time>
      </trkpt>
      <trkpt lat="42.41117" lon="2.17867">
        <ele>2405.36</ele>
        <time>2017-02-07T13:24:04Z</time>
      </trkpt>
      <trkpt lat="42.41113" lon="2.17856">
        <ele>2401.51</ele>
        <time>2017-02-07T13:24:05Z</time>
      </trkpt>
      <trkpt lat="42.41112" lon="2.17845">
        <ele>2398.15</ele>
        <time>2017-02-07T13:24:06Z</time>
      </trkpt>
      <trkpt lat="42.41109" lon="2.17808">
        <ele>2396.7</ele>
        <time>2017-02-07T13:24:11Z</time>
      </trkpt>
      <trkpt lat="42.41102" lon="2.17792">
        <ele>2390.94</ele>
        <time>2017-02-07T13:24:13Z</time>
      </trkpt>
      <trkpt lat="42.41087" lon="2.17768">
        <ele>2381.8</ele>
        <time>2017-02-07T13:24:17Z</time>
      </trkpt>
      <trkpt lat="42.41077" lon="2.1775">
        <ele>2377</ele>
        <time>2017-02-07T13:24:19Z</time>
      </trkpt>
      <trkpt lat="42.4107" lon="2.17732">
        <ele>2373.15</ele>
        <time>2017-02-07T13:24:21Z</time>
      </trkpt>
      <trkpt lat="42.41065" lon="2.17706">
        <ele>2374.59</ele>
        <time>2017-02-07T13:24:32Z</time>
      </trkpt>
      <trkpt lat="42.41064" lon="2.17705">
        <ele>2374.59</ele>
        <time>2017-02-07T13:24:53Z</time>
      </trkpt>
      <trkpt lat="42.41055" lon="2.177">
        <ele>2370.75</ele>
        <time>2017-02-07T13:24:57Z</time>
      </trkpt>
      <trkpt lat="42.4105" lon="2.17696">
        <ele>2367.38</ele>
        <time>2017-02-07T13:24:58Z</time>
      </trkpt>
      <trkpt lat="42.41047" lon="2.17675">
        <ele>2364.02</ele>
        <time>2017-02-07T13:25:01Z</time>
      </trkpt>
      <trkpt lat="42.41033" lon="2.17639">
        <ele>2359.69</ele>
        <time>2017-02-07T13:25:07Z</time>
      </trkpt>
      <trkpt lat="42.41026" lon="2.17627">
        <ele>2355.37</ele>
        <time>2017-02-07T13:25:09Z</time>
      </trkpt>
      <trkpt lat="42.41008" lon="2.17598">
        <ele>2350.08</ele>
        <time>2017-02-07T13:25:13Z</time>
      </trkpt>
      <trkpt lat="42.41002" lon="2.17593">
        <ele>2345.27</ele>
        <time>2017-02-07T13:25:14Z</time>
      </trkpt>
      <trkpt lat="42.40997" lon="2.17588">
        <ele>2345.27</ele>
        <time>2017-02-07T13:25:15Z</time>
      </trkpt>
      <trkpt lat="42.40987" lon="2.17577">
        <ele>2341.43</ele>
        <time>2017-02-07T13:25:17Z</time>
      </trkpt>
      <trkpt lat="42.4097" lon="2.17548">
        <ele>2336.14</ele>
        <time>2017-02-07T13:25:21Z</time>
      </trkpt>
      <trkpt lat="42.40965" lon="2.1754">
        <ele>2336.14</ele>
        <time>2017-02-07T13:25:22Z</time>
      </trkpt>
      <trkpt lat="42.40949" lon="2.17518">
        <ele>2332.3</ele>
        <time>2017-02-07T13:25:25Z</time>
      </trkpt>
      <trkpt lat="42.40944" lon="2.1751">
        <ele>2326.53</ele>
        <time>2017-02-07T13:25:26Z</time>
      </trkpt>
      <trkpt lat="42.40929" lon="2.17494">
        <ele>2323.16</ele>
        <time>2017-02-07T13:25:29Z</time>
      </trkpt>
      <trkpt lat="42.40914" lon="2.17473">
        <ele>2316.43</ele>
        <time>2017-02-07T13:25:32Z</time>
      </trkpt>
      <trkpt lat="42.4091" lon="2.17463">
        <ele>2316.43</ele>
        <time>2017-02-07T13:25:33Z</time>
      </trkpt>
      <trkpt lat="42.40896" lon="2.17454">
        <ele>2316.43</ele>
        <time>2017-02-07T13:26:01Z</time>
      </trkpt>
      <trkpt lat="42.40892" lon="2.17441">
        <ele>2312.59</ele>
        <time>2017-02-07T13:26:05Z</time>
      </trkpt>
      <trkpt lat="42.40888" lon="2.17437">
        <ele>2312.59</ele>
        <time>2017-02-07T13:26:06Z</time>
      </trkpt>
      <trkpt lat="42.40883" lon="2.17433">
        <ele>2310.67</ele>
        <time>2017-02-07T13:26:07Z</time>
      </trkpt>
      <trkpt lat="42.40858" lon="2.17418">
        <ele>2303.94</ele>
        <time>2017-02-07T13:26:11Z</time>
      </trkpt>
      <trkpt lat="42.4085" lon="2.174">
        <ele>2299.61</ele>
        <time>2017-02-07T13:26:18Z</time>
      </trkpt>
      <trkpt lat="42.40843" lon="2.17386">
        <ele>2295.28</ele>
        <time>2017-02-07T13:26:21Z</time>
      </trkpt>
      <trkpt lat="42.40844" lon="2.17379">
        <ele>2295.28</ele>
        <time>2017-02-07T13:26:22Z</time>
      </trkpt>
      <trkpt lat="42.40846" lon="2.17373">
        <ele>2294.8</ele>
        <time>2017-02-07T13:26:41Z</time>
      </trkpt>
      <trkpt lat="42.40839" lon="2.17366">
        <ele>2290.96</ele>
        <time>2017-02-07T13:26:46Z</time>
      </trkpt>
      <trkpt lat="42.40816" lon="2.17355">
        <ele>2285.19</ele>
        <time>2017-02-07T13:26:51Z</time>
      </trkpt>
      <trkpt lat="42.40798" lon="2.17327">
        <ele>2274.62</ele>
        <time>2017-02-07T13:26:55Z</time>
      </trkpt>
      <trkpt lat="42.40796" lon="2.17314">
        <ele>2269.33</ele>
        <time>2017-02-07T13:26:56Z</time>
      </trkpt>
      <trkpt lat="42.40786" lon="2.17293">
        <ele>2265.48</ele>
        <time>2017-02-07T13:26:58Z</time>
      </trkpt>
      <trkpt lat="42.40759" lon="2.17274">
        <ele>2261.16</ele>
        <time>2017-02-07T13:27:02Z</time>
      </trkpt>
      <trkpt lat="42.40752" lon="2.17267">
        <ele>2256.83</ele>
        <time>2017-02-07T13:27:03Z</time>
      </trkpt>
      <trkpt lat="42.40738" lon="2.17236">
        <ele>2251.06</ele>
        <time>2017-02-07T13:27:06Z</time>
      </trkpt>
      <trkpt lat="42.40714" lon="2.17204">
        <ele>2245.3</ele>
        <time>2017-02-07T13:27:10Z</time>
      </trkpt>
      <trkpt lat="42.40707" lon="2.17194">
        <ele>2243.37</ele>
        <time>2017-02-07T13:27:11Z</time>
      </trkpt>
      <trkpt lat="42.40685" lon="2.17162">
        <ele>2239.05</ele>
        <time>2017-02-07T13:27:15Z</time>
      </trkpt>
      <trkpt lat="42.40667" lon="2.17118">
        <ele>2230.88</ele>
        <time>2017-02-07T13:27:20Z</time>
      </trkpt>
      <trkpt lat="42.40634" lon="2.17086">
        <ele>2222.71</ele>
        <time>2017-02-07T13:27:25Z</time>
      </trkpt>
      <trkpt lat="42.406" lon="2.17039">
        <ele>2222.71</ele>
        <time>2017-02-07T13:28:03Z</time>
      </trkpt>
      <trkpt lat="42.40596" lon="2.17023">
        <ele>2216.94</ele>
        <time>2017-02-07T13:28:08Z</time>
      </trkpt>
      <trkpt lat="42.40598" lon="2.17006">
        <ele>2213.09</ele>
        <time>2017-02-07T13:28:10Z</time>
      </trkpt>
      <trkpt lat="42.40593" lon="2.16977">
        <ele>2206.36</ele>
        <time>2017-02-07T13:28:13Z</time>
      </trkpt>
      <trkpt lat="42.4059" lon="2.16969">
        <ele>2207.81</ele>
        <time>2017-02-07T13:28:14Z</time>
      </trkpt>
      <trkpt lat="42.40582" lon="2.16954">
        <ele>2203.48</ele>
        <time>2017-02-07T13:28:16Z</time>
      </trkpt>
      <trkpt lat="42.40578" lon="2.16934">
        <ele>2200.11</ele>
        <time>2017-02-07T13:28:18Z</time>
      </trkpt>
      <trkpt lat="42.40569" lon="2.16917">
        <ele>2196.75</ele>
        <time>2017-02-07T13:28:20Z</time>
      </trkpt>
      <trkpt lat="42.40563" lon="2.1691">
        <ele>2197.23</ele>
        <time>2017-02-07T13:28:54Z</time>
      </trkpt>
      <trkpt lat="42.40564" lon="2.16909">
        <ele>2197.23</ele>
        <time>2017-02-07T13:28:56Z</time>
      </trkpt>
      <trkpt lat="42.40569" lon="2.16886">
        <ele>2192.42</ele>
        <time>2017-02-07T13:29:02Z</time>
      </trkpt>
      <trkpt lat="42.4057" lon="2.16853">
        <ele>2188.58</ele>
        <time>2017-02-07T13:29:06Z</time>
      </trkpt>
      <trkpt lat="42.40568" lon="2.16823">
        <ele>2184.25</ele>
        <time>2017-02-07T13:29:09Z</time>
      </trkpt>
      <trkpt lat="42.40564" lon="2.16784">
        <ele>2178</ele>
        <time>2017-02-07T13:29:12Z</time>
      </trkpt>
      <trkpt lat="42.4057" lon="2.16749">
        <ele>2173.2</ele>
        <time>2017-02-07T13:29:15Z</time>
      </trkpt>
      <trkpt lat="42.40574" lon="2.16734">
        <ele>2176.56</ele>
        <time>2017-02-07T13:29:17Z</time>
      </trkpt>
      <trkpt lat="42.40559" lon="2.16715">
        <ele>2168.87</ele>
        <time>2017-02-07T13:29:21Z</time>
      </trkpt>
      <trkpt lat="42.40542" lon="2.16698">
        <ele>2165.03</ele>
        <time>2017-02-07T13:29:24Z</time>
      </trkpt>
      <trkpt lat="42.40539" lon="2.16689">
        <ele>2161.66</ele>
        <time>2017-02-07T13:29:25Z</time>
      </trkpt>
      <trkpt lat="42.40537" lon="2.1668">
        <ele>2161.66</ele>
        <time>2017-02-07T13:29:26Z</time>
      </trkpt>
      <trkpt lat="42.40529" lon="2.16667">
        <ele>2158.3</ele>
        <time>2017-02-07T13:29:28Z</time>
      </trkpt>
      <trkpt lat="42.40527" lon="2.1666">
        <ele>2159.74</ele>
        <time>2017-02-07T13:29:29Z</time>
      </trkpt>
      <trkpt lat="42.40531" lon="2.16641">
        <ele>2156.37</ele>
        <time>2017-02-07T13:29:32Z</time>
      </trkpt>
      <trkpt lat="42.40534" lon="2.16631">
        <ele>2156.86</ele>
        <time>2017-02-07T13:29:56Z</time>
      </trkpt>
      <trkpt lat="42.40538" lon="2.16565">
        <ele>2148.68</ele>
        <time>2017-02-07T13:30:04Z</time>
      </trkpt>
      <trkpt lat="42.40518" lon="2.16514">
        <ele>2141.47</ele>
        <time>2017-02-07T13:30:15Z</time>
      </trkpt>
      <trkpt lat="42.40501" lon="2.16515">
        <ele>2137.63</ele>
        <time>2017-02-07T13:30:18Z</time>
      </trkpt>
      <trkpt lat="42.40484" lon="2.16521">
        <ele>2139.55</ele>
        <time>2017-02-07T13:30:22Z</time>
      </trkpt>
      <trkpt lat="42.40435" lon="2.16494">
        <ele>2135.23</ele>
        <time>2017-02-07T13:30:41Z</time>
      </trkpt>
      <trkpt lat="42.40414" lon="2.16485">
        <ele>2133.78</ele>
        <time>2017-02-07T13:30:57Z</time>
      </trkpt>
      <trkpt lat="42.40403" lon="2.16474">
        <ele>2130.42</ele>
        <time>2017-02-07T13:31:20Z</time>
      </trkpt>
      <trkpt lat="42.40391" lon="2.16461">
        <ele>2127.05</ele>
        <time>2017-02-07T13:31:23Z</time>
      </trkpt>
      <trkpt lat="42.40374" lon="2.16447">
        <ele>2120.81</ele>
        <time>2017-02-07T13:31:26Z</time>
      </trkpt>
      <trkpt lat="42.40359" lon="2.16434">
        <ele>2117.44</ele>
        <time>2017-02-07T13:31:28Z</time>
      </trkpt>
      <trkpt lat="42.40342" lon="2.16423">
        <ele>2113.6</ele>
        <time>2017-02-07T13:31:30Z</time>
      </trkpt>
      <trkpt lat="42.40333" lon="2.16417">
        <ele>2112.63</ele>
        <time>2017-02-07T13:31:31Z</time>
      </trkpt>
      <trkpt lat="42.40243" lon="2.16329">
        <ele>2107.35</ele>
        <time>2017-02-07T13:31:50Z</time>
      </trkpt>
      <trkpt lat="42.40228" lon="2.1631">
        <ele>2103.02</ele>
        <time>2017-02-07T13:31:54Z</time>
      </trkpt>
      <trkpt lat="42.40217" lon="2.16292">
        <ele>2098.21</ele>
        <time>2017-02-07T13:31:57Z</time>
      </trkpt>
      <trkpt lat="42.40202" lon="2.16266">
        <ele>2096.77</ele>
        <time>2017-02-07T13:32:01Z</time>
      </trkpt>
      <trkpt lat="42.40189" lon="2.16238">
        <ele>2093.89</ele>
        <time>2017-02-07T13:32:05Z</time>
      </trkpt>
      <trkpt lat="42.40173" lon="2.16227">
        <ele>2092.45</ele>
        <time>2017-02-07T13:32:18Z</time>
      </trkpt>
      <trkpt lat="42.40159" lon="2.16214">
        <ele>2088.6</ele>
        <time>2017-02-07T13:32:48Z</time>
      </trkpt>
      <trkpt lat="42.40127" lon="2.16193">
        <ele>2082.83</ele>
        <time>2017-02-07T13:32:55Z</time>
      </trkpt>
      <trkpt lat="42.40123" lon="2.16191">
        <ele>2082.83</ele>
        <time>2017-02-07T13:32:56Z</time>
      </trkpt>
      <trkpt lat="42.40121" lon="2.16174">
        <ele>2078.99</ele>
        <time>2017-02-07T13:33:00Z</time>
      </trkpt>
      <trkpt lat="42.40117" lon="2.1616">
        <ele>2074.18</ele>
        <time>2017-02-07T13:33:02Z</time>
      </trkpt>
      <trkpt lat="42.40108" lon="2.16142">
        <ele>2070.34</ele>
        <time>2017-02-07T13:33:05Z</time>
      </trkpt>
      <trkpt lat="42.40093" lon="2.16117">
        <ele>2064.09</ele>
        <time>2017-02-07T13:33:09Z</time>
      </trkpt>
      <trkpt lat="42.40089" lon="2.16114">
        <ele>2064.09</ele>
        <time>2017-02-07T13:33:10Z</time>
      </trkpt>
      <trkpt lat="42.40054" lon="2.16074">
        <ele>2054.47</ele>
        <time>2017-02-07T13:33:19Z</time>
      </trkpt>
      <trkpt lat="42.40021" lon="2.16033">
        <ele>2051.11</ele>
        <time>2017-02-07T13:33:45Z</time>
      </trkpt>
      <trkpt lat="42.40014" lon="2.16021">
        <ele>2049.67</ele>
        <time>2017-02-07T13:33:47Z</time>
      </trkpt>
      <trkpt lat="42.40001" lon="2.15981">
        <ele>2046.78</ele>
        <time>2017-02-07T13:33:53Z</time>
      </trkpt>
      <trkpt lat="42.39989" lon="2.1594">
        <ele>2041.98</ele>
        <time>2017-02-07T13:33:59Z</time>
      </trkpt>
      <trkpt lat="42.39966" lon="2.15881">
        <ele>2038.13</ele>
        <time>2017-02-07T13:34:10Z</time>
      </trkpt>
      <trkpt lat="42.3995" lon="2.15854">
        <ele>2034.29</ele>
        <time>2017-02-07T13:34:17Z</time>
      </trkpt>
      <trkpt lat="42.3993" lon="2.15821">
        <ele>2028.52</ele>
        <time>2017-02-07T13:34:22Z</time>
      </trkpt>
      <trkpt lat="42.39921" lon="2.15807">
        <ele>2024.67</ele>
        <time>2017-02-07T13:34:24Z</time>
      </trkpt>
      <trkpt lat="42.39895" lon="2.15776">
        <ele>2023.71</ele>
        <time>2017-02-07T13:34:53Z</time>
      </trkpt>
      <trkpt lat="42.39888" lon="2.15759">
        <ele>2020.35</ele>
        <time>2017-02-07T13:34:57Z</time>
      </trkpt>
      <trkpt lat="42.39886" lon="2.15754">
        <ele>2020.35</ele>
        <time>2017-02-07T13:34:58Z</time>
      </trkpt>
      <trkpt lat="42.39874" lon="2.15714">
        <ele>2015.06</ele>
        <time>2017-02-07T13:35:05Z</time>
      </trkpt>
      <trkpt lat="42.39868" lon="2.15699">
        <ele>2010.25</ele>
        <time>2017-02-07T13:35:07Z</time>
      </trkpt>
      <trkpt lat="42.39847" lon="2.15676">
        <ele>2008.81</ele>
        <time>2017-02-07T13:35:12Z</time>
      </trkpt>
      <trkpt lat="42.39841" lon="2.15672">
        <ele>2009.29</ele>
        <time>2017-02-07T13:35:38Z</time>
      </trkpt>
      <trkpt lat="42.39834" lon="2.1566">
        <ele>2005.93</ele>
        <time>2017-02-07T13:35:42Z</time>
      </trkpt>
      <trkpt lat="42.39837" lon="2.15638">
        <ele>2001.12</ele>
        <time>2017-02-07T13:35:45Z</time>
      </trkpt>
      <trkpt lat="42.39842" lon="2.15619">
        <ele>1996.32</ele>
        <time>2017-02-07T13:35:47Z</time>
      </trkpt>
      <trkpt lat="42.39838" lon="2.1561">
        <ele>1991.99</ele>
        <time>2017-02-07T13:35:48Z</time>
      </trkpt>
      <trkpt lat="42.39828" lon="2.15591">
        <ele>1988.14</ele>
        <time>2017-02-07T13:35:50Z</time>
      </trkpt>
      <trkpt lat="42.39822" lon="2.15584">
        <ele>1988.14</ele>
        <time>2017-02-07T13:35:51Z</time>
      </trkpt>
      <trkpt lat="42.3979" lon="2.15581">
        <ele>1989.1</ele>
        <time>2017-02-07T13:36:18Z</time>
      </trkpt>
      <trkpt lat="42.39789" lon="2.15561">
        <ele>1985.74</ele>
        <time>2017-02-07T13:36:23Z</time>
      </trkpt>
      <trkpt lat="42.39787" lon="2.15541">
        <ele>1983.82</ele>
        <time>2017-02-07T13:36:26Z</time>
      </trkpt>
      <trkpt lat="42.39779" lon="2.15526">
        <ele>1980.45</ele>
        <time>2017-02-07T13:36:29Z</time>
      </trkpt>
      <trkpt lat="42.3977" lon="2.15508">
        <ele>1976.61</ele>
        <time>2017-02-07T13:36:32Z</time>
      </trkpt>
      <trkpt lat="42.39766" lon="2.15504">
        <ele>1976.61</ele>
        <time>2017-02-07T13:36:33Z</time>
      </trkpt>
      <trkpt lat="42.39734" lon="2.15511">
        <ele>1978.53</ele>
        <time>2017-02-07T13:37:22Z</time>
      </trkpt>
      <trkpt lat="42.39736" lon="2.15517">
        <ele>1979.49</ele>
        <time>2017-02-07T13:39:13Z</time>
      </trkpt>
      <trkpt lat="42.39734" lon="2.15513">
        <ele>1976.13</ele>
        <time>2017-02-07T13:39:50Z</time>
      </trkpt>
      <trkpt lat="42.39735" lon="2.1551">
        <ele>1976.13</ele>
        <time>2017-02-07T13:40:20Z</time>
      </trkpt>
      <trkpt lat="42.39735" lon="2.1551">
        <ele>1977.57</ele>
        <time>2017-02-07T13:50:00Z</time>
      </trkpt>
      <trkpt lat="42.39732" lon="2.15517">
        <ele>1977.09</ele>
        <time>2017-02-07T13:51:55Z</time>
      </trkpt>
      <trkpt lat="42.39715" lon="2.15528">
        <ele>1980.45</ele>
        <time>2017-02-07T13:52:53Z</time>
      </trkpt>
      <trkpt lat="42.39713" lon="2.15535">
        <ele>1980.45</ele>
        <time>2017-02-07T13:53:06Z</time>
      </trkpt>
      <trkpt lat="42.39676" lon="2.15555">
        <ele>1984.3</ele>
        <time>2017-02-07T13:54:17Z</time>
      </trkpt>
      <trkpt lat="42.39659" lon="2.15556">
        <ele>1985.74</ele>
        <time>2017-02-07T13:54:43Z</time>
      </trkpt>
      <trkpt lat="42.39625" lon="2.15558">
        <ele>1990.07</ele>
        <time>2017-02-07T13:55:26Z</time>
      </trkpt>
      <trkpt lat="42.39591" lon="2.15559">
        <ele>1994.39</ele>
        <time>2017-02-07T13:56:12Z</time>
      </trkpt>
      <trkpt lat="42.39561" lon="2.15559">
        <ele>1998.24</ele>
        <time>2017-02-07T13:56:54Z</time>
      </trkpt>
      <trkpt lat="42.39522" lon="2.15561">
        <ele>2001.6</ele>
        <time>2017-02-07T13:57:39Z</time>
      </trkpt>
      <trkpt lat="42.39477" lon="2.15552">
        <ele>2004.97</ele>
        <time>2017-02-07T13:58:32Z</time>
      </trkpt>
      <trkpt lat="42.39458" lon="2.15546">
        <ele>2005.93</ele>
        <time>2017-02-07T13:58:55Z</time>
      </trkpt>
      <trkpt lat="42.39411" lon="2.15525">
        <ele>2010.73</ele>
        <time>2017-02-07T13:59:54Z</time>
      </trkpt>
      <trkpt lat="42.39393" lon="2.15531">
        <ele>2014.58</ele>
        <time>2017-02-07T14:00:26Z</time>
      </trkpt>
      <trkpt lat="42.39376" lon="2.15541">
        <ele>2020.35</ele>
        <time>2017-02-07T14:01:07Z</time>
      </trkpt>
      <trkpt lat="42.3936" lon="2.15558">
        <ele>2025.64</ele>
        <time>2017-02-07T14:01:47Z</time>
      </trkpt>
      <trkpt lat="42.39344" lon="2.15578">
        <ele>2031.4</ele>
        <time>2017-02-07T14:02:24Z</time>
      </trkpt>
      <trkpt lat="42.39339" lon="2.15585">
        <ele>2034.77</ele>
        <time>2017-02-07T14:02:42Z</time>
      </trkpt>
      <trkpt lat="42.39328" lon="2.15603">
        <ele>2040.05</ele>
        <time>2017-02-07T14:03:23Z</time>
      </trkpt>
      <trkpt lat="42.39319" lon="2.15621">
        <ele>2045.34</ele>
        <time>2017-02-07T14:04:01Z</time>
      </trkpt>
      <trkpt lat="42.39315" lon="2.1563">
        <ele>2048.71</ele>
        <time>2017-02-07T14:04:19Z</time>
      </trkpt>
      <trkpt lat="42.39311" lon="2.1564">
        <ele>2052.07</ele>
        <time>2017-02-07T14:04:33Z</time>
      </trkpt>
      <trkpt lat="42.39305" lon="2.15651">
        <ele>2055.44</ele>
        <time>2017-02-07T14:05:11Z</time>
      </trkpt>
      <trkpt lat="42.393" lon="2.15672">
        <ele>2060.24</ele>
        <time>2017-02-07T14:05:49Z</time>
      </trkpt>
      <trkpt lat="42.393" lon="2.15705">
        <ele>2064.57</ele>
        <time>2017-02-07T14:06:28Z</time>
      </trkpt>
      <trkpt lat="42.39287" lon="2.15738">
        <ele>2068.89</ele>
        <time>2017-02-07T14:07:07Z</time>
      </trkpt>
      <trkpt lat="42.39271" lon="2.15768">
        <ele>2074.66</ele>
        <time>2017-02-07T14:07:50Z</time>
      </trkpt>
      <trkpt lat="42.39281" lon="2.15783">
        <ele>2078.03</ele>
        <time>2017-02-07T14:08:20Z</time>
      </trkpt>
      <trkpt lat="42.39279" lon="2.15801">
        <ele>2082.35</ele>
        <time>2017-02-07T14:08:56Z</time>
      </trkpt>
      <trkpt lat="42.39266" lon="2.15822">
        <ele>2087.16</ele>
        <time>2017-02-07T14:09:32Z</time>
      </trkpt>
      <trkpt lat="42.39255" lon="2.15834">
        <ele>2092.45</ele>
        <time>2017-02-07T14:10:12Z</time>
      </trkpt>
      <trkpt lat="42.39255" lon="2.15845">
        <ele>2095.81</ele>
        <time>2017-02-07T14:10:32Z</time>
      </trkpt>
      <trkpt lat="42.39257" lon="2.15868">
        <ele>2100.14</ele>
        <time>2017-02-07T14:11:06Z</time>
      </trkpt>
      <trkpt lat="42.39247" lon="2.1589">
        <ele>2103.98</ele>
        <time>2017-02-07T14:11:39Z</time>
      </trkpt>
      <trkpt lat="42.39246" lon="2.15899">
        <ele>2107.35</ele>
        <time>2017-02-07T14:12:00Z</time>
      </trkpt>
      <trkpt lat="42.39241" lon="2.15928">
        <ele>2113.12</ele>
        <time>2017-02-07T14:12:40Z</time>
      </trkpt>
      <trkpt lat="42.39233" lon="2.15949">
        <ele>2119.36</ele>
        <time>2017-02-07T14:13:14Z</time>
      </trkpt>
      <trkpt lat="42.3923" lon="2.1596">
        <ele>2122.73</ele>
        <time>2017-02-07T14:13:31Z</time>
      </trkpt>
      <trkpt lat="42.39221" lon="2.15967">
        <ele>2126.57</ele>
        <time>2017-02-07T14:14:17Z</time>
      </trkpt>
      <trkpt lat="42.39214" lon="2.15966">
        <ele>2126.57</ele>
        <time>2017-02-07T14:14:40Z</time>
      </trkpt>
      <trkpt lat="42.3921" lon="2.15942">
        <ele>2127.53</ele>
        <time>2017-02-07T14:15:45Z</time>
      </trkpt>
    </trkseg>
  </trk>
</gpx>